Time;durP1;ratioP1;P1;durP2;ratioP2;P2;SDS_P1;SDS_P2;PMS_P1;PMS_P2;Temp;Humidity;BMP_temperature;BMP_pressure;BME280_temperature;BME280_humidity;BME280_pressure;Samples;Min_cycle;Max_cycle;Signal;HPM_P1;HPM_P2
2021/12/10 00:01:52;;;;;;;18.50;11.10;;;;;;;7.63;75.69;99693.52;24492;1354;3030215;-64
2021/12/10 00:04:23;;;;;;;20.40;11.80;;;;;;;7.66;75.30;99688.85;24481;1354;3026911;-63
2021/12/10 00:06:54;;;;;;;16.50;11.00;;;;;;;7.29;76.61;99695.88;24525;1357;3052280;-66
2021/12/10 00:09:28;;;;;;;20.20;11.70;;;;;;;7.11;77.44;99701.33;24497;1354;3027263;-63
2021/12/10 00:12:06;;;;;;;18.60;9.50;;;;;;;7.08;77.76;99710.55;24485;1354;3052076;-63
2021/12/10 00:14:36;;;;;;;15.80;9.30;;;;;;;7.63;76.09;99702.58;24494;1357;3055787;-66
2021/12/10 00:17:10;;;;;;;22.10;11.00;;;;;;;8.06;74.46;99701.67;24486;1354;3026340;-64
2021/12/10 00:19:45;;;;;;;21.00;12.00;;;;;;;8.01;74.43;99704.55;24480;1357;3070375;-65
2021/12/10 00:22:23;;;;;;;23.90;12.50;;;;;;;7.78;75.05;99705.58;24479;1358;3048175;-66
2021/12/10 00:24:52;;;;;;;25.60;12.70;;;;;;;7.36;76.10;99715.62;24541;1354;3053484;-65
2021/12/10 00:27:28;;;;;;;23.30;12.40;;;;;;;7.03;77.59;99717.70;24474;1354;3027412;-67
2021/12/10 00:30:08;;;;;;;23.50;12.80;;;;;;;6.90;78.04;99715.77;24457;1361;3048791;-65
2021/12/10 00:32:43;;;;;;;17.30;9.90;;;;;;;6.77;78.77;99721.89;24466;1360;3056130;-63
2021/12/10 00:35:18;;;;;;;20.00;10.20;;;;;;;7.28;77.14;99716.81;24510;1354;3055501;-66
2021/12/10 00:37:48;;;;;;;22.30;11.10;;;;;;;7.70;75.42;99716.55;24516;1355;3057905;-66
2021/12/10 00:40:18;;;;;;;21.40;12.90;;;;;;;7.67;75.14;99715.14;24466;1354;3026158;-65
2021/12/10 00:42:47;;;;;;;26.40;12.00;;;;;;;7.41;76.19;99719.05;24462;1357;3026163;-66
2021/12/10 00:45:17;;;;;;;22.30;12.90;;;;;;;7.51;76.06;99717.76;24496;1354;3026553;-64
2021/12/10 00:47:47;;;;;;;22.90;12.40;;;;;;;7.29;76.54;99718.88;24453;1360;3052209;-65
2021/12/10 00:50:21;;;;;;;21.90;13.60;;;;;;;7.05;77.68;99726.33;24461;1352;3027008;-64
2021/12/10 00:52:51;;;;;;;21.10;11.10;;;;;;;6.92;78.42;99729.48;24498;1354;3053649;-66
2021/12/10 00:55:20;;;;;;;24.20;11.90;;;;;;;7.22;77.81;99728.24;24467;1351;3026859;-66
2021/12/10 00:57:50;;;;;;;18.30;10.30;;;;;;;7.58;76.50;99725.12;24473;1359;3028322;-66
2021/12/10 01:00:35;;;;;;;17.50;10.30;;;;;;;7.83;75.03;99726.08;24481;1354;3052684;-66
2021/12/10 01:03:06;;;;;;;22.00;11.70;;;;;;;7.70;75.00;99724.94;24515;1358;3055130;-66
2021/12/10 01:05:36;;;;;;;19.30;10.50;;;;;;;7.26;76.41;99729.64;24507;1357;3026682;-65
2021/12/10 01:08:08;;;;;;;22.10;11.60;;;;;;;7.18;76.29;99727.34;24458;1354;3026157;-64
2021/12/10 01:10:42;;;;;;;20.10;10.90;;;;;;;6.84;77.34;99732.58;24485;1357;3026444;-65
2021/12/10 01:13:13;;;;;;;19.40;10.90;;;;;;;6.57;78.90;99736.47;24496;1354;3053183;-67
2021/12/10 01:27:08;;;;;;;23.50;12.50;;;;;;;6.68;78.77;99729.90;24483;1354;3056314;-63
2021/12/10 01:29:42;;;;;;;22.00;11.80;;;;;;;6.52;79.46;99730.56;24509;1354;3052202;-66
2021/12/10 01:32:16;;;;;;;19.70;9.80;;;;;;;6.45;79.98;99726.16;24511;1358;3055560;-64
2021/12/10 01:34:45;;;;;;;17.80;10.20;;;;;;;6.93;78.09;99720.55;24495;1360;3030225;-63
2021/12/10 01:37:15;;;;;;;19.20;10.90;;;;;;;7.25;76.62;99717.64;24463;1357;3026110;-64
2021/12/10 01:39:44;;;;;;;18.10;10.50;;;;;;;7.14;76.81;99721.06;24489;1360;3026470;-67
2021/12/10 01:42:32;;;;;;;20.80;10.30;;;;;;;6.80;77.86;99728.03;24476;1354;3054543;-65
2021/12/10 01:45:05;;;;;;;20.20;11.70;;;;;;;6.74;78.14;99735.95;24478;1358;3070990;-65
2021/12/10 01:47:35;;;;;;;23.50;11.80;;;;;;;6.39;79.59;99738.19;24437;1360;3026636;-64
2021/12/10 01:50:06;;;;;;;15.10;9.50;;;;;;;6.24;80.46;99738.27;24392;1357;3028385;-66
2021/12/10 01:52:35;;;;;;;19.70;10.40;;;;;;;6.54;79.22;99729.26;24486;1358;3026928;-66
2021/12/10 01:55:05;;;;;;;16.90;10.50;;;;;;;6.84;77.98;99729.97;24492;1354;3026338;-66
2021/12/10 01:57:37;;;;;;;24.60;12.50;;;;;;;6.62;78.67;99733.65;24503;1357;3055020;-64
2021/12/10 02:00:09;;;;;;;19.20;10.60;;;;;;;6.56;79.04;99733.53;24523;1354;3026702;-64
2021/12/10 02:02:42;;;;;;;23.30;12.50;;;;;;;6.31;79.87;99740.76;24495;1357;3026614;-66
2021/12/10 02:05:13;;;;;;;20.20;11.90;;;;;;;6.20;80.62;99740.34;24488;1358;3052871;-66
2021/12/10 02:07:42;;;;;;;18.40;10.10;;;;;;;6.16;80.72;99739.60;24478;1354;3026104;-64
2021/12/10 02:10:12;;;;;;;17.20;10.30;;;;;;;6.48;79.60;99729.00;24475;1354;3056307;-66
2021/12/10 02:12:42;;;;;;;18.50;9.30;;;;;;;6.77;77.69;99729.92;24443;1357;3029748;-67
2021/12/10 02:15:12;;;;;;;21.40;10.80;;;;;;;6.53;78.19;99738.04;24449;1354;3026907;-65
2021/12/10 02:17:46;;;;;;;21.00;11.80;;;;;;;6.49;78.56;99735.02;24500;1354;3055840;-65
2021/12/10 02:20:24;;;;;;;;;;;;;;;6.29;79.03;99737.91;24484;1354;3048695;-65
2021/12/10 02:22:53;;;;;;;21.30;10.70;;;;;;;6.16;79.57;99741.17;24529;1358;3053944;-63
2021/12/10 02:25:24;;;;;;;19.10;10.20;;;;;;;5.96;80.17;99750.07;24485;1351;3026887;-68
2021/12/10 02:27:54;;;;;;;18.60;10.30;;;;;;;6.36;79.10;99749.28;24476;1358;3027469;-65
2021/12/10 02:30:24;;;;;;;15.70;10.00;;;;;;;6.66;77.52;99747.23;24437;1360;3027562;-68
2021/12/10 02:32:53;;;;;;;20.90;11.70;;;;;;;6.71;77.37;99749.64;24501;1354;3027191;-66
2021/12/10 02:35:23;;;;;;;15.40;10.00;;;;;;;6.75;76.92;99749.67;24458;1358;3027135;-66
2021/12/10 02:37:52;;;;;;;18.50;11.10;;;;;;;6.59;77.29;99751.88;24481;1354;3026752;-64
2021/12/10 02:40:22;;;;;;;16.60;10.00;;;;;;;6.23;78.52;99754.50;24510;1357;3027136;-66
2021/12/10 02:42:54;;;;;;;14.80;9.10;;;;;;;6.22;78.70;99755.38;24475;1357;3051447;-63
2021/12/10 02:45:23;;;;;;;17.20;10.00;;;;;;;6.76;77.41;99754.48;24488;1354;3026998;-66
2021/12/10 02:47:53;;;;;;;19.10;9.50;;;;;;;7.14;75.77;99754.17;24433;1354;3027282;-64
2021/12/10 02:50:24;;;;;;;21.10;11.90;;;;;;;7.32;75.12;99755.86;24493;1354;3026617;-63
2021/12/10 02:52:53;;;;;;;21.10;11.20;;;;;;;7.08;75.81;99760.34;24492;1354;3026847;-68
2021/12/10 02:55:22;;;;;;;21.10;11.30;;;;;;;6.96;76.32;99769.90;24522;1354;3026489;-66
2021/12/10 02:57:53;;;;;;;19.90;11.50;;;;;;;6.90;76.36;99768.58;24469;1360;3056208;-65
2021/12/10 03:00:29;;;;;;;20.90;11.40;;;;;;;6.73;77.08;99773.95;24498;1357;3026738;-63
2021/12/10 03:02:58;;;;;;;16.50;9.40;;;;;;;6.46;78.33;99772.73;24483;1357;3071147;-65
2021/12/10 03:05:28;;;;;;;20.50;11.00;;;;;;;7.01;77.19;99773.69;24478;1351;3030596;-63
2021/12/10 03:07:57;;;;;;;20.40;10.80;;;;;;;7.34;75.27;99774.08;24472;1360;3026771;-64
2021/12/10 03:10:28;;;;;;;20.40;11.40;;;;;;;7.41;74.98;99773.95;24501;1354;3070267;-66
2021/12/10 03:12:58;;;;;;;21.00;12.20;;;;;;;7.14;75.65;99773.65;24462;1361;3026532;-65
2021/12/10 03:15:29;;;;;;;22.60;12.90;;;;;;;7.10;76.17;99771.09;24521;1355;3026095;-64
2021/12/10 03:17:58;;;;;;;24.40;13.10;;;;;;;6.93;76.75;99768.98;24476;1356;3027403;-66
2021/12/10 03:20:29;;;;;;;27.30;13.70;;;;;;;6.90;76.78;99765.08;24489;1354;3026550;-65
2021/12/10 03:23:01;;;;;;;21.50;10.60;;;;;;;6.94;76.55;99767.20;24480;1354;3027119;-64
2021/12/10 03:25:30;;;;;;;20.90;10.40;;;;;;;7.25;75.83;99763.81;24465;1352;3026885;-64
2021/12/10 03:28:00;;;;;;;23.90;11.40;;;;;;;7.83;73.77;99763.43;24467;1354;3026287;-64
2021/12/10 03:30:31;;;;;;;25.60;13.20;;;;;;;7.71;73.62;99765.52;24463;1354;3049553;-64
2021/12/10 03:33:00;;;;;;;23.90;12.60;;;;;;;7.50;74.15;99773.55;24467;1361;3026513;-65
2021/12/10 03:35:35;;;;;;;25.00;13.20;;;;;;;7.40;74.41;99773.83;24505;1361;3026572;-66
2021/12/10 03:38:05;;;;;;;20.70;12.20;;;;;;;7.15;75.35;99775.23;24484;1354;3051634;-65
2021/12/10 03:40:34;;;;;;;26.50;13.70;;;;;;;6.93;76.41;99777.14;24483;1354;3026996;-64
2021/12/10 03:43:03;;;;;;;20.80;10.10;;;;;;;6.98;76.99;99778.50;24485;1354;3026575;-65
2021/12/10 03:45:35;;;;;;;25.70;11.30;;;;;;;7.39;75.32;99779.41;24444;1358;3049849;-65
2021/12/10 03:48:14;;;;;;;19.90;11.60;;;;;;;7.75;73.68;99781.22;24500;1361;3028123;-67
2021/12/10 03:50:44;;;;;;;20.10;11.90;;;;;;;7.97;72.98;99777.09;24463;1355;3051403;-66
2021/12/10 03:53:14;;;;;;;22.20;12.70;;;;;;;7.76;73.37;99785.49;24475;1354;3026123;-64
2021/12/10 03:55:44;;;;;;;23.90;12.90;;;;;;;7.56;74.04;99788.31;24475;1354;3026609;-65
2021/12/10 03:58:13;;;;;;;24.00;12.90;;;;;;;7.15;75.47;99794.00;24454;1358;3026490;-66
2021/12/10 04:00:45;;;;;;;25.50;13.40;;;;;;;7.01;76.36;99789.52;24474;1354;3026839;-65
2021/12/10 04:03:16;;;;;;;18.80;10.30;;;;;;;6.89;77.16;99794.89;24464;1354;3026141;-65
2021/12/10 04:05:48;;;;;;;23.40;10.80;;;;;;;7.20;76.14;99789.44;24391;1357;3049588;-65
2021/12/10 04:08:17;;;;;;;24.70;10.50;;;;;;;7.49;74.97;99791.92;24432;1354;3027376;-65
2021/12/10 04:10:47;;;;;;;19.10;10.50;;;;;;;7.64;74.62;99791.95;24454;1358;3030115;-66
2021/12/10 04:13:17;;;;;;;24.50;11.40;;;;;;;7.63;74.30;99790.27;24443;1356;3026777;-66
2021/12/10 04:15:46;;;;;;;20.70;10.90;;;;;;;7.45;74.58;99794.71;24503;1358;3027729;-67
2021/12/10 04:18:16;;;;;;;22.30;12.00;;;;;;;7.33;74.93;99794.00;24481;1355;3028402;-65
2021/12/10 04:20:46;;;;;;;18.60;11.40;;;;;;;7.09;75.93;99797.21;24529;1358;3026681;-64
2021/12/10 04:23:17;;;;;;;22.00;10.20;;;;;;;7.03;75.99;99802.67;24496;1354;3026644;-65
2021/12/10 04:25:46;;;;;;;16.00;9.50;;;;;;;7.39;75.56;99797.73;24486;1360;3027673;-66
2021/12/10 04:28:18;;;;;;;22.50;9.50;;;;;;;7.94;73.58;99795.56;24501;1354;3026697;-66
2021/12/10 04:30:47;;;;;;;18.10;10.40;;;;;;;7.99;73.11;99794.98;24463;1361;3056162;-63
2021/12/10 04:33:21;;;;;;;16.40;10.40;;;;;;;7.78;73.54;99795.71;24490;1354;3026900;-64
2021/12/10 04:35:52;;;;;;;16.60;9.60;;;;;;;7.53;74.43;99795.38;24451;1360;3051994;-63
2021/12/10 04:38:22;;;;;;;18.40;10.70;;;;;;;7.38;74.97;99800.73;24540;1354;3026440;-64
2021/12/10 04:40:52;;;;;;;19.00;11.50;;;;;;;7.20;75.59;99800.59;24447;1358;3026705;-66
2021/12/10 04:43:22;;;;;;;16.90;9.20;;;;;;;7.00;76.72;99799.17;24464;1357;3027429;-63
2021/12/10 04:45:55;;;;;;;20.30;9.40;;;;;;;7.46;75.65;99797.79;24484;1358;3026269;-65
2021/12/10 04:48:26;;;;;;;17.80;8.80;;;;;;;7.92;73.76;99800.33;24447;1354;3055334;-67
2021/12/10 04:50:55;;;;;;;20.10;9.70;;;;;;;8.05;72.99;99806.92;24472;1358;3026491;-66
2021/12/10 04:53:24;;;;;;;17.20;10.10;;;;;;;7.84;73.57;99808.00;24488;1354;3026657;-66
2021/12/10 04:55:53;;;;;;;16.10;10.30;;;;;;;7.70;74.00;99809.14;24490;1355;3055030;-63
2021/12/10 04:58:24;;;;;;;17.40;10.30;;;;;;;7.55;74.43;99808.92;24511;1354;3027224;-65
2021/12/10 05:00:53;;;;;;;21.40;11.30;;;;;;;7.47;74.59;99813.60;24531;1361;3026547;-66
2021/12/10 05:03:22;;;;;;;18.60;8.80;;;;;;;7.37;75.20;99817.85;24507;1357;3029046;-67
2021/12/10 05:05:56;;;;;;;15.70;8.40;;;;;;;7.84;74.53;99819.36;24458;1356;3058043;-67
2021/12/10 05:08:26;;;;;;;18.10;8.60;;;;;;;8.35;73.05;99820.58;24444;1357;3050659;-65
2021/12/10 05:10:54;;;;;;;19.30;10.40;;;;;;;8.33;72.56;99822.08;24494;1358;3026709;-66
2021/12/10 05:13:23;;;;;;;18.30;10.80;;;;;;;8.20;73.10;99821.79;24510;1360;3055830;-64
2021/12/10 05:15:57;;;;;;;23.00;11.70;;;;;;;7.97;73.45;99816.88;24432;1350;3027498;-65
2021/12/10 05:18:30;;;;;;;20.50;11.70;;;;;;;7.79;74.17;99819.58;24489;1357;3053715;-65
2021/12/10 05:21:00;;;;;;;20.20;11.40;;;;;;;7.69;74.34;99822.79;24493;1358;3026032;-63
2021/12/10 05:23:32;;;;;;;31.50;13.90;;;;;;;7.49;75.20;99830.25;24461;1355;3026728;-66
2021/12/10 05:26:01;;;;;;;23.90;11.80;;;;;;;7.35;75.81;99826.80;24437;1359;3026580;-67
2021/12/10 05:28:30;;;;;;;20.70;11.50;;;;;;;7.86;74.85;99823.96;24498;1354;3053905;-65
2021/12/10 05:31:00;;;;;;;23.90;12.70;;;;;;;8.28;73.15;99821.05;24503;1355;3027079;-64
2021/12/10 05:33:29;;;;;;;22.40;13.10;;;;;;;8.37;72.96;99819.25;24470;1358;3052250;-66
2021/12/10 05:36:00;;;;;;;24.50;12.90;;;;;;;8.22;73.23;99823.45;24477;1358;3026422;-66
2021/12/10 05:38:31;;;;;;;21.00;12.40;;;;;;;8.04;73.65;99830.50;24448;1360;3026736;-68
2021/12/10 05:41:01;;;;;;;20.80;12.10;;;;;;;7.85;74.19;99832.41;24485;1356;3027098;-67
2021/12/10 05:43:30;;;;;;;25.80;13.20;;;;;;;7.64;74.94;99836.77;24462;1354;3026613;-63
2021/12/10 05:45:59;;;;;;;23.50;13.20;;;;;;;7.54;75.12;99834.07;24510;1359;3026565;-66
2021/12/10 05:48:28;;;;;;;24.10;11.00;;;;;;;7.49;75.45;99839.66;24523;1361;3050325;-65
2021/12/10 05:50:59;;;;;;;22.60;11.30;;;;;;;7.95;74.90;99842.95;24462;1354;3028184;-66
2021/12/10 05:53:28;;;;;;;24.60;11.20;;;;;;;8.49;73.05;99838.79;24469;1354;3025968;-67
2021/12/10 05:55:57;;;;;;;27.40;13.00;;;;;;;8.54;72.57;99841.54;24464;1360;3026236;-66
2021/12/10 05:58:26;;;;;;;25.10;12.40;;;;;;;8.37;72.80;99845.80;24482;1354;3054702;-65
2021/12/10 06:01:00;;;;;;;25.30;14.10;;;;;;;8.18;73.44;99852.92;24471;1357;3026645;-65
2021/12/10 06:03:30;;;;;;;26.90;14.20;;;;;;;7.94;74.30;99854.84;24474;1358;3025951;-65
2021/12/10 06:05:59;;;;;;;25.00;14.10;;;;;;;7.80;74.83;99857.17;24495;1356;3029666;-66
2021/12/10 06:08:29;;;;;;;25.90;14.70;;;;;;;7.69;75.28;99858.89;24534;1357;3028503;-66
2021/12/10 06:10:59;;;;;;;19.60;11.50;;;;;;;7.57;75.96;99862.19;24479;1356;3026999;-66
2021/12/10 06:13:28;;;;;;;27.50;11.60;;;;;;;8.16;74.68;99862.61;24460;1359;3028076;-65
2021/12/10 06:15:57;;;;;;;24.30;12.20;;;;;;;8.69;72.86;99865.33;24470;1359;3026358;-64
2021/12/10 06:18:26;;;;;;;27.20;13.30;;;;;;;8.69;72.28;99867.06;24479;1360;3026965;-64
2021/12/10 06:20:55;;;;;;;27.70;13.60;;;;;;;8.40;72.78;99866.63;24470;1359;3070227;-65
2021/12/10 06:23:24;;;;;;;29.00;14.80;;;;;;;8.12;73.99;99868.70;24466;1355;3026581;-66
2021/12/10 06:25:54;;;;;;;29.80;15.30;;;;;;;7.98;74.46;99869.30;24486;1354;3054109;-67
2021/12/10 06:28:24;;;;;;;32.80;15.50;;;;;;;7.81;75.11;99872.11;24483;1354;3026581;-66
2021/12/10 06:30:53;;;;;;;35.10;15.70;;;;;;;7.70;75.72;99866.87;24473;1359;3026382;-66
2021/12/10 06:33:23;;;;;;;24.80;12.80;;;;;;;7.61;76.24;99867.59;24478;1355;3026453;-66
2021/12/10 06:35:53;;;;;;;27.80;13.30;;;;;;;8.12;75.04;99866.26;24500;1360;3069846;-66
2021/12/10 06:38:22;;;;;;;25.60;13.40;;;;;;;8.61;73.65;99864.46;24458;1354;3026675;-66
2021/12/10 06:40:52;;;;;;;27.80;14.20;;;;;;;8.73;72.85;99864.98;24228;1355;3367788;-64
2021/12/10 06:43:21;;;;;;;32.10;14.60;;;;;;;8.55;73.21;99867.91;24464;1357;3027353;-64
2021/12/10 06:45:51;;;;;;;29.90;15.30;;;;;;;8.35;74.11;99868.05;24492;1355;3029013;-65
2021/12/10 06:48:22;;;;;;;32.40;17.40;;;;;;;8.17;74.91;99867.80;24476;1354;3052104;-65
2021/12/10 06:50:54;;;;;;;32.40;16.70;;;;;;;8.04;75.16;99865.73;24502;1356;3026261;-66
2021/12/10 06:53:25;;;;;;;37.70;18.00;;;;;;;8.01;75.23;99868.16;24478;1354;3026844;-65
2021/12/10 06:55:54;;;;;;;32.30;15.20;;;;;;;8.00;75.49;99867.68;24513;1355;3026535;-64
2021/12/10 06:58:23;;;;;;;36.80;16.00;;;;;;;8.57;74.16;99869.02;24465;1355;3026894;-64
2021/12/10 07:01:09;;;;;;;30.10;15.90;;;;;;;9.11;72.28;99867.73;24500;1354;3056844;-66
2021/12/10 07:03:38;;;;;;;35.20;18.30;;;;;;;9.12;71.94;99875.52;24467;1354;3054165;-66
2021/12/10 07:06:07;;;;;;;36.80;17.50;;;;;;;9.00;72.22;99876.13;24451;1355;3026837;-64
2021/12/10 07:08:38;;;;;;;33.10;17.70;;;;;;;8.82;72.46;99879.89;24472;1358;3027065;-66
2021/12/10 07:11:09;;;;;;;41.30;19.80;;;;;;;8.62;73.09;99878.92;24466;1354;3026867;-64
2021/12/10 07:13:41;;;;;;;39.20;19.10;;;;;;;8.50;73.54;99880.15;24468;1355;3026749;-64
2021/12/10 07:16:11;;;;;;;39.30;18.20;;;;;;;8.33;74.09;99880.37;24475;1354;3026574;-67
2021/12/10 07:18:40;;;;;;;33.40;15.70;;;;;;;8.21;74.78;99885.06;24461;1358;3027353;-65
2021/12/10 07:21:09;;;;;;;37.20;16.00;;;;;;;8.71;73.63;99879.90;24486;1354;3028176;-64
2021/12/10 07:23:38;;;;;;;38.20;16.80;;;;;;;9.24;71.88;99886.33;24488;1354;3051265;-64
2021/12/10 07:26:09;;;;;;;32.30;16.80;;;;;;;9.32;71.08;99883.15;24498;1357;3026416;-66
2021/12/10 07:28:40;;;;;;;35.90;17.10;;;;;;;9.22;71.40;99880.48;24504;1360;3027463;-66
2021/12/10 07:31:11;;;;;;;32.90;16.40;;;;;;;8.95;72.01;99885.58;24449;1358;3026886;-62
2021/12/10 07:33:40;;;;;;;34.40;16.00;;;;;;;8.76;72.76;99889.07;24456;1357;3055459;-66
2021/12/10 07:36:09;;;;;;;27.30;15.30;;;;;;;8.61;73.30;99886.82;24456;1354;3026804;-65
2021/12/10 07:38:39;;;;;;;30.20;14.90;;;;;;;8.32;74.19;99890.88;24507;1357;3054644;-63
2021/12/10 07:41:08;;;;;;;23.00;11.80;;;;;;;8.25;74.71;99893.09;24470;1359;3026669;-66
2021/12/10 07:43:37;;;;;;;26.20;12.80;;;;;;;8.71;73.58;99890.38;24452;1354;3048466;-66
2021/12/10 07:46:07;;;;;;;24.50;12.30;;;;;;;9.25;71.68;99888.55;24441;1360;3026199;-65
2021/12/10 07:48:36;;;;;;;20.70;11.80;;;;;;;9.35;71.10;99895.02;24500;1355;3027021;-64
2021/12/10 07:51:09;;;;;;;24.20;13.80;;;;;;;9.18;71.47;99895.69;24502;1358;3030051;-64
2021/12/10 07:53:39;;;;;;;25.90;14.10;;;;;;;8.95;72.22;99900.95;24473;1360;3055235;-65
2021/12/10 07:56:09;;;;;;;27.90;14.90;;;;;;;8.72;72.96;99901.86;24500;1354;3026785;-66
2021/12/10 07:58:42;;;;;;;27.80;15.00;;;;;;;8.54;73.57;99906.70;24473;1358;3027397;-63
2021/12/10 08:01:17;;;;;;;27.20;14.30;;;;;;;8.39;73.95;99910.83;24485;1355;3027605;-64
2021/12/10 08:03:46;;;;;;;26.40;12.70;;;;;;;8.32;74.46;99916.20;24503;1354;3053225;-66
2021/12/10 08:06:17;;;;;;;27.00;13.10;;;;;;;8.72;73.57;99908.64;24449;1357;3026488;-66
2021/12/10 08:08:47;;;;;;;32.00;14.80;;;;;;;9.30;71.61;99905.60;24460;1355;3027284;-63
2021/12/10 08:11:17;;;;;;;30.50;16.20;;;;;;;9.26;71.14;99905.09;24468;1353;3027075;-67
2021/12/10 08:13:46;;;;;;;29.40;14.30;;;;;;;9.07;71.53;99901.09;24488;1354;3027207;-63
2021/12/10 08:16:16;;;;;;;31.30;16.10;;;;;;;8.76;72.41;99902.55;24491;1354;3026492;-65
2021/12/10 08:18:45;;;;;;;26.50;15.20;;;;;;;8.58;73.10;99899.52;24480;1354;3048328;-64
2021/12/10 08:21:14;;;;;;;26.50;14.80;;;;;;;8.44;73.56;99899.61;24482;1357;3026775;-63
2021/12/10 08:23:44;;;;;;;25.40;15.20;;;;;;;8.33;74.13;99902.34;24513;1357;3030066;-64
2021/12/10 08:26:13;;;;;;;24.80;12.00;;;;;;;8.20;74.99;99901.19;24549;1356;3051800;-65
2021/12/10 08:28:45;;;;;;;22.70;11.70;;;;;;;8.68;73.80;99899.04;24481;1358;3026431;-66
2021/12/10 08:31:16;;;;;;;17.10;11.20;;;;;;;9.18;71.98;99895.50;24471;1357;3026684;-66
2021/12/10 08:33:48;;;;;;;24.00;13.40;;;;;;;9.28;71.32;99898.19;24459;1361;3026909;-64
2021/12/10 08:36:19;;;;;;;27.30;13.30;;;;;;;9.16;71.69;99893.86;24460;1359;3026576;-64
2021/12/10 08:38:47;;;;;;;20.60;12.40;;;;;;;9.09;72.04;99887.20;24504;1355;3027321;-63
2021/12/10 08:41:23;;;;;;;21.90;13.30;;;;;;;8.91;72.21;99888.23;24515;1355;3026316;-64
2021/12/10 08:43:56;;;;;;;20.30;12.70;;;;;;;8.62;73.12;99879.42;24506;1360;3049875;-64
2021/12/10 08:46:25;;;;;;;19.40;13.40;;;;;;;8.43;73.90;99880.61;24455;1357;3026659;-65
2021/12/10 08:48:56;;;;;;;18.00;10.90;;;;;;;8.36;74.63;99883.55;24444;1347;3026995;-64
2021/12/10 08:51:29;;;;;;;18.40;10.40;;;;;;;8.92;73.15;99879.96;24468;1357;3026390;-63
2021/12/10 08:54:00;;;;;;;19.10;11.70;;;;;;;9.55;71.32;99877.48;24477;1360;3028799;-68
2021/12/10 08:56:29;;;;;;;18.50;11.60;;;;;;;9.65;70.67;99877.14;24468;1359;3027547;-64
2021/12/10 08:59:00;;;;;;;21.60;12.00;;;;;;;9.55;70.64;99877.30;24468;1358;3026833;-67
2021/12/10 09:01:33;;;;;;;18.80;12.70;;;;;;;9.47;71.14;99870.70;24534;1359;3026847;-66
2021/12/10 09:04:03;;;;;;;19.20;12.30;;;;;;;9.37;71.23;99865.56;24464;1355;3049661;-64
2021/12/10 09:06:34;;;;;;;20.70;12.50;;;;;;;9.35;71.25;99866.36;24533;1354;3026172;-63
2021/12/10 09:09:05;;;;;;;20.20;13.90;;;;;;;9.28;71.82;99860.95;24519;1358;3027222;-65
2021/12/10 09:11:34;;;;;;;17.00;11.00;;;;;;;9.20;72.37;99858.38;24453;1357;3026499;-63
2021/12/10 09:14:05;;;;;;;21.20;12.30;;;;;;;9.75;71.00;99860.68;24421;1357;3026438;-60
2021/12/10 09:16:36;;;;;;;18.70;12.10;;;;;;;10.37;69.12;99857.34;24482;1354;3055106;-64
2021/12/10 09:19:08;;;;;;;17.60;11.60;;;;;;;10.49;68.20;99854.61;24487;1357;3026385;-64
2021/12/10 09:21:38;;;;;;;17.80;11.80;;;;;;;10.38;68.30;99855.55;24484;1355;3027318;-64
2021/12/10 09:24:07;;;;;;;26.10;17.70;;;;;;;10.29;68.70;99855.83;24467;1360;3026662;-61
2021/12/10 09:26:43;;;;;;;27.80;17.20;;;;;;;10.18;69.31;99861.85;24475;1358;3071575;-63
2021/12/10 09:29:14;;;;;;;30.10;18.60;;;;;;;10.04;69.48;99862.91;24471;1360;3052214;-62
2021/12/10 09:31:44;;;;;;;30.50;19.40;;;;;;;9.94;69.70;99866.76;24441;1357;3027309;-65
2021/12/10 09:34:19;;;;;;;31.50;22.60;;;;;;;9.73;70.80;99867.48;24443;1356;3054543;-66
2021/12/10 09:36:48;;;;;;;32.60;21.40;;;;;;;9.67;71.05;99865.53;24487;1355;3026679;-62
2021/12/10 09:39:18;;;;;;;18.10;11.70;;;;;;;9.66;71.09;99864.30;24429;1360;3026649;-65
2021/12/10 09:41:48;;;;;;;20.00;11.20;;;;;;;10.22;69.93;99855.14;24481;1358;3028106;-63
2021/12/10 09:44:17;;;;;;;22.30;12.00;;;;;;;10.76;68.04;99851.93;24414;1357;3027516;-63
2021/12/10 09:46:47;;;;;;;25.30;11.70;;;;;;;10.84;67.34;99852.20;24449;1356;3026819;-65
2021/12/10 09:49:17;;;;;;;15.20;11.20;;;;;;;10.68;67.83;99848.34;16012;1357;3041241;-64
2021/12/10 09:51:48;;;;;;;17.50;10.90;;;;;;;10.49;68.55;99844.63;24550;1355;3026875;-61
2021/12/10 09:54:19;;;;;;;15.50;11.10;;;;;;;10.27;69.15;99844.73;24461;1354;3026295;-61
2021/12/10 10:04:33;;;;;;;15.30;10.30;;;;;;;9.79;71.05;99850.19;11210;1360;3105621;-68
2021/12/10 10:07:10;;;;;;;15.70;10.60;;;;;;;9.74;71.13;99848.84;24541;1355;3051826;-65
2021/12/10 10:14:00;;;;;;;12.90;8.20;;;;;;;10.70;68.28;99838.05;24525;1360;3051169;-68
2021/12/10 10:16:30;;;;;;;15.00;9.80;;;;;;;10.92;67.54;99845.60;24497;1362;3026589;-70
2021/12/10 10:18:59;;;;;;;16.80;9.00;;;;;;;10.87;67.62;99842.19;24531;1357;3026224;-66
2021/12/10 10:22:22;;;;;;;16.60;10.10;;;;;;;10.67;68.08;99843.14;9510;1359;3079225;-71
2021/12/10 10:25:19;;;;;;;13.10;9.50;;;;;;;10.42;68.94;99846.08;16650;1367;3139979;-66
2021/12/10 10:28:05;;;;;;;16.10;10.00;;;;;;;10.36;69.47;99844.10;24637;1360;3026206;-67
2021/12/10 10:38:09;;;;;;;15.10;9.30;;;;;;;10.20;70.57;99829.35;24500;1365;3052637;-69
2021/12/10 10:40:41;;;;;;;10.00;6.60;;;;;;;10.22;70.44;99817.85;24639;1362;3027055;-65
2021/12/10 10:43:10;;;;;;;9.60;6.40;;;;;;;10.73;68.41;99814.92;24468;1363;3026880;-67
2021/12/10 10:45:42;;;;;;;14.40;7.90;;;;;;;11.31;66.57;99813.10;24484;1354;3028394;-64
2021/12/10 10:48:13;;;;;;;14.50;7.70;;;;;;;11.25;66.56;99814.79;24461;1356;3052967;-63
2021/12/10 11:02:39;;;;;;;14.20;9.00;;;;;;;10.40;69.67;99806.23;24526;1360;3055570;-61
2021/12/10 11:05:11;;;;;;;13.50;8.60;;;;;;;10.23;70.19;99805.20;24440;1364;3058879;-62
2021/12/10 11:08:04;;;;;;;12.90;9.30;;;;;;;10.16;70.50;99805.77;14544;1361;3037789;-65
2021/12/10 11:11:34;;;;;;;13.20;6.70;;;;;;;10.20;70.84;99794.35;19031;1361;3067945;-61
2021/12/10 11:14:15;;;;;;;12.40;7.90;;;;;;;10.77;69.21;99789.89;25190;1359;3051116;-60
2021/12/10 11:16:46;;;;;;;17.20;8.50;;;;;;;10.90;68.56;99784.54;24840;1364;3069288;-61
2021/12/10 11:19:20;;;;;;;15.40;8.00;;;;;;;10.73;68.94;99777.80;24469;1364;3026881;-61
2021/12/10 11:21:55;;;;;;;17.10;9.70;;;;;;;10.54;69.73;99777.64;24446;1361;3054771;-60
2021/12/10 11:24:30;;;;;;;13.50;8.90;;;;;;;10.42;70.26;99775.66;24427;1361;3056122;-62
2021/12/10 11:27:04;;;;;;;16.10;9.10;;;;;;;10.21;71.03;99776.63;24428;1364;3058803;-61
2021/12/10 11:29:43;;;;;;;15.40;8.90;;;;;;;10.12;71.73;99786.04;24420;1366;3052801;-61
2021/12/10 11:32:25;;;;;;;17.90;10.20;;;;;;;10.03;72.12;99788.41;24453;1359;3053155;-61
2021/12/10 11:34:57;;;;;;;13.70;7.80;;;;;;;9.91;72.90;99786.04;24451;1360;3054420;-60
2021/12/10 11:37:57;;;;;;;13.00;7.30;;;;;;;10.46;71.54;99783.11;24417;1364;3027138;-62
2021/12/10 11:41:09;;;;;;;11.70;7.90;;;;;;;10.91;69.67;99776.94;24446;1361;3049570;-61
2021/12/10 11:46:33;;;;;;;16.80;8.50;;;;;;;10.72;70.23;99774.20;24388;1360;3026351;-61
2021/12/10 11:49:10;;;;;;;14.40;9.00;;;;;;;10.48;70.93;99774.14;24438;1359;3056247;-62
2021/12/10 11:51:45;;;;;;;13.50;9.30;;;;;;;10.34;71.57;99781.70;24418;1364;3052257;-62
2021/12/10 11:54:17;;;;;;;17.20;9.20;;;;;;;10.25;71.85;99784.42;24458;1361;3056191;-60
2021/12/10 11:56:57;;;;;;;14.40;10.20;;;;;;;10.13;72.54;99784.73;24466;1361;3027248;-61
2021/12/10 11:59:35;;;;;;;14.10;7.90;;;;;;;10.09;72.85;99784.21;24412;1367;3070146;-60
2021/12/10 12:02:12;;;;;;;16.70;8.70;;;;;;;10.70;71.44;99782.20;24420;1357;3049413;-61
2021/12/10 12:05:00;;;;;;;11.60;7.20;;;;;;;11.03;70.19;99785.39;18697;1365;3055553;-66
2021/12/10 12:08:44;;;;;;;12.60;7.10;;;;;;;10.77;70.77;99789.48;10165;1368;3061604;-63
2021/12/10 12:12:37;;;;;;;14.40;6.50;;;;;;;10.44;71.97;99797.46;10810;1371;3069582;-64
2021/12/10 12:15:43;;;;;;;11.30;6.80;;;;;;;10.22;72.88;99799.27;7983;1372;3128588;-65
2021/12/10 12:18:39;;;;;;;12.80;6.80;;;;;;;10.09;73.42;99800.84;10024;1370;3071113;-66
2021/12/10 12:22:37;;;;;;;12.20;7.30;;;;;;;9.96;74.20;99801.17;8667;1372;3142574;-66